createdAt,value
2018-02-25T00:01:29.491Z,62.4
2018-02-25T00:06:29.402Z,62.4
2018-02-25T00:11:29.367Z,62.9
2018-02-25T00:16:34.495Z,63.4
2018-02-25T00:21:39.474Z,63.3
2018-02-25T00:26:34.381Z,63.6
2018-02-25T00:31:34.373Z,63.7
2018-02-25T00:36:34.228Z,63.5
2018-02-25T00:41:34.315Z,63.9
2018-02-25T00:46:34.307Z,64.3
2018-02-25T00:51:34.350Z,64
2018-02-25T00:56:34.428Z,64.1
2018-02-25T01:01:34.411Z,63.9
2018-02-25T01:06:34.378Z,63.9
2018-02-25T01:11:34.231Z,64.3
2018-02-25T01:16:34.444Z,64.2
2018-02-25T01:21:34.453Z,64.8
2018-02-25T01:26:34.298Z,64.9
2018-02-25T01:31:34.720Z,64.9
2018-02-25T01:36:34.637Z,65.6
2018-02-25T01:41:35.200Z,65.3
2018-02-25T01:46:34.981Z,65.9
2018-02-25T01:51:34.907Z,65.4
2018-02-25T01:56:35.035Z,65.1
2018-02-25T02:01:34.951Z,64.9
2018-02-25T02:06:34.978Z,65.4
2018-02-25T02:11:35.013Z,65.3
2018-02-25T02:16:34.915Z,65.5
2018-02-25T02:21:34.981Z,65.9
2018-02-25T02:26:34.800Z,66
2018-02-25T02:31:34.952Z,66.5
2018-02-25T02:36:35.006Z,66.9
2018-02-25T02:41:34.806Z,67
2018-02-25T02:46:34.846Z,67
2018-02-25T02:51:34.825Z,67.5
2018-02-25T02:56:34.994Z,67.7
2018-02-25T03:01:34.938Z,67.6
2018-02-25T03:06:34.777Z,67.9
2018-02-25T03:11:35.025Z,68.4
2018-02-25T03:16:34.824Z,68.3
2018-02-25T03:21:34.960Z,68.6
2018-02-25T03:26:34.784Z,67.8
2018-02-25T03:31:35.059Z,68.5
2018-02-25T03:36:34.974Z,69.4
2018-02-25T03:41:35.012Z,68.6
2018-02-25T03:46:34.845Z,68.8
2018-02-25T03:51:34.972Z,69.3
2018-02-25T03:56:35.001Z,68.9
2018-02-25T04:01:35.074Z,69.9
2018-02-25T04:06:34.945Z,69.3
2018-02-25T04:11:35.015Z,69.5
2018-02-25T04:16:35.024Z,69.7
2018-02-25T04:21:34.859Z,69.9
2018-02-25T04:26:35.009Z,69.7
2018-02-25T04:31:35.054Z,70.4
2018-02-25T04:36:35.064Z,70.6
2018-02-25T04:41:34.997Z,70.9
2018-02-25T04:46:35.038Z,71.3
2018-02-25T04:51:35.095Z,70.8
2018-02-25T04:56:34.881Z,71.1
2018-02-25T05:01:37.709Z,70.9
2018-02-25T05:06:42.955Z,71.2
2018-02-25T05:11:37.660Z,71.5
2018-02-25T05:16:37.908Z,71.7
2018-02-25T05:21:37.831Z,71.6
2018-02-25T05:26:37.859Z,71
2018-02-25T05:31:37.932Z,71.5
2018-02-25T05:36:37.715Z,71.4
2018-02-25T05:41:37.859Z,71.3
2018-02-25T05:46:37.924Z,71.4
2018-02-25T05:51:37.951Z,71.6
2018-02-25T05:56:37.858Z,71.7
2018-02-25T06:01:37.878Z,72
2018-02-25T06:06:37.716Z,72.1
2018-02-25T06:11:37.874Z,72.9
2018-02-25T06:16:37.744Z,72.8
2018-02-25T06:21:37.864Z,73.3
2018-02-25T06:26:37.871Z,72.8
2018-02-25T06:31:37.855Z,72.4
2018-02-25T06:36:37.958Z,72.8
2018-02-25T06:41:38.062Z,72.7
2018-02-25T06:46:37.888Z,72.4
2018-02-25T06:51:38.216Z,72
2018-02-25T06:56:38.260Z,70.6
2018-02-25T07:01:38.333Z,70.6
2018-02-25T07:06:38.115Z,70.2
2018-02-25T07:11:38.493Z,69
2018-02-25T07:16:38.386Z,68.6
2018-02-25T07:21:38.763Z,67.9
2018-02-25T07:26:38.691Z,66
2018-02-25T07:31:38.909Z,66
2018-02-25T07:36:38.962Z,64.4
2018-02-25T07:41:39.044Z,60.9
2018-02-25T07:46:39.262Z,60.2
2018-02-25T07:51:39.469Z,60.2
2018-02-25T07:56:39.271Z,58.1
2018-02-25T08:01:39.451Z,58
2018-02-25T08:06:39.256Z,58.1
2018-02-25T08:11:39.316Z,59.5
2018-02-25T08:16:39.301Z,59.4
2018-02-25T08:21:39.304Z,57.1
2018-02-25T08:26:39.316Z,57.8
2018-02-25T08:31:39.316Z,58.2
2018-02-25T08:36:39.405Z,58
2018-02-25T08:41:39.421Z,58.6
2018-02-25T08:46:39.361Z,59.1
2018-02-25T08:51:39.605Z,57.6
2018-02-25T08:56:39.332Z,58.2
2018-02-25T09:01:39.410Z,56.9
2018-02-25T09:06:39.376Z,56.8
2018-02-25T09:11:41.083Z,55.6
2018-02-25T09:16:40.577Z,56.8
2018-02-25T09:21:40.717Z,57.3
2018-02-25T09:26:41.184Z,56.8
2018-02-25T09:31:39.430Z,56.1
2018-02-25T09:36:41.296Z,58.3
2018-02-25T09:41:40.697Z,60.2
2018-02-25T09:46:41.236Z,60.4
2018-02-25T09:51:43.765Z,59.6
2018-02-25T09:56:49.804Z,60.7
2018-02-25T10:01:43.748Z,59.5
2018-02-25T10:06:43.820Z,59.4
2018-02-25T10:11:43.753Z,58.2
2018-02-25T10:16:43.762Z,59.1
2018-02-25T10:21:43.765Z,57.2
2018-02-25T10:26:43.773Z,56.6
2018-02-25T10:31:43.778Z,56.4
2018-02-25T10:36:43.758Z,57
2018-02-25T10:41:43.871Z,56.3
2018-02-25T10:46:43.779Z,56.6
2018-02-25T10:51:43.733Z,55.2
2018-02-25T10:56:43.785Z,56.2
2018-02-25T11:01:43.781Z,56.8
2018-02-25T11:06:43.803Z,56.9
2018-02-25T11:11:43.814Z,56.1
2018-02-25T11:16:43.836Z,56.6
2018-02-25T11:21:43.830Z,55.4
2018-02-25T11:26:43.990Z,53.9
2018-02-25T11:31:44.040Z,53.5
2018-02-25T11:36:43.861Z,52.6
2018-02-25T11:41:43.864Z,52.2
2018-02-25T11:46:43.856Z,52.9
2018-02-25T11:51:43.855Z,51.7
2018-02-25T11:56:44.091Z,52.4
2018-02-25T12:01:44.017Z,51.7
2018-02-25T12:06:44.153Z,52.6
2018-02-25T12:11:44.183Z,52
2018-02-25T12:16:44.348Z,52.6
2018-02-25T12:21:47.459Z,52.3
2018-02-25T12:26:44.588Z,51.7
2018-02-25T12:31:44.378Z,52.1
2018-02-25T12:36:45.112Z,51.1
2018-02-25T12:46:44.394Z,51.2
2018-02-25T12:51:44.383Z,51.1
2018-02-25T12:56:44.391Z,51.2
2018-02-25T13:01:44.405Z,51.8
2018-02-25T13:06:44.382Z,51.9
2018-02-25T13:11:44.404Z,52.4
2018-02-25T13:16:44.403Z,51.2
2018-02-25T13:21:44.402Z,51.8
2018-02-25T13:26:44.643Z,51.5
2018-02-25T13:31:44.419Z,51.7
2018-02-25T13:36:44.569Z,51.3
2018-02-25T13:41:44.655Z,51.4
2018-02-25T13:46:44.481Z,52.3
2018-02-25T13:51:44.407Z,50.7
2018-02-25T13:56:44.434Z,52.4
2018-02-25T14:01:44.554Z,51.6
2018-02-25T14:06:44.461Z,51.2
2018-02-25T14:11:44.907Z,52.2
2018-02-25T14:16:44.608Z,50.5
2018-02-25T14:21:44.620Z,51.2
2018-02-25T14:26:44.579Z,51.7
2018-02-25T14:31:44.902Z,51.5
2018-02-25T14:36:44.440Z,52.6
2018-02-25T14:41:44.485Z,51.2
2018-02-25T14:46:44.709Z,52
2018-02-25T14:51:49.624Z,51.2
2018-02-25T14:56:44.877Z,51.8
2018-02-25T15:01:44.764Z,53.1
2018-02-25T15:06:45.113Z,52.3
2018-02-25T15:11:44.585Z,52.2
2018-02-25T15:16:44.546Z,52.1
2018-02-25T15:21:44.543Z,52.6
2018-02-25T15:26:44.575Z,53.3
2018-02-25T15:31:44.569Z,53.9
2018-02-25T15:36:44.589Z,53.6
2018-02-25T15:41:44.683Z,53
2018-02-25T15:46:45.287Z,53.7
2018-02-25T15:51:46.350Z,54.7
2018-02-25T15:56:45.040Z,55.4
2018-02-25T16:01:45.047Z,55.1
2018-02-25T16:06:44.937Z,55.8
2018-02-25T16:11:46.049Z,56.4
2018-02-25T16:26:44.827Z,57.4
2018-02-25T16:31:44.941Z,57.8
2018-02-25T16:36:44.857Z,59
2018-02-25T16:41:45.443Z,60.3
2018-02-25T16:46:44.834Z,60.4
2018-02-25T16:51:44.942Z,60.8
2018-02-25T16:56:46.887Z,60.6
2018-02-25T17:01:45.588Z,60.6
2018-02-25T17:06:44.850Z,61.1
2018-02-25T17:11:45.111Z,61
2018-02-25T17:16:44.864Z,61.9
2018-02-25T17:21:44.875Z,61.4
2018-02-25T17:26:45.219Z,62.1
2018-02-25T17:33:20.419Z,62.1
2018-02-25T17:36:45.929Z,61.4
2018-02-25T17:41:45.430Z,61.2
2018-02-25T17:46:44.935Z,60.5
2018-02-25T17:51:45.065Z,60.8
2018-02-25T17:56:45.930Z,60.1
2018-02-25T18:01:44.890Z,60.8
2018-02-25T18:06:44.891Z,60.3
2018-02-25T18:11:44.836Z,61.6
2018-02-25T18:16:44.867Z,63.2
2018-02-25T18:21:44.879Z,64.8
2018-02-25T18:26:49.921Z,66.3
2018-02-25T18:31:47.132Z,65.4
2018-02-25T18:36:47.449Z,66
2018-02-25T18:41:46.643Z,65.3
2018-02-25T18:46:44.887Z,64
2018-02-25T18:51:44.896Z,64.4
2018-02-25T18:56:44.899Z,63.8
2018-02-25T19:01:44.896Z,64
2018-02-25T19:06:45.026Z,63.8
2018-02-25T19:11:45.397Z,63.9
2018-02-25T19:16:44.922Z,64.1
2018-02-25T19:21:44.931Z,64.5
2018-02-25T19:26:44.959Z,64.7
2018-02-25T19:31:47.444Z,64.1
2018-02-25T19:36:52.265Z,64.5
2018-02-25T19:41:47.276Z,64.4
2018-02-25T19:46:47.177Z,63.9
2018-02-25T19:51:47.166Z,64.5
2018-02-25T19:56:47.208Z,63.9
2018-02-25T20:01:47.191Z,63.6
2018-02-25T20:06:47.446Z,63
2018-02-25T20:11:47.196Z,62.6
2018-02-25T20:16:47.185Z,62.7
2018-02-25T20:21:47.246Z,63.8
2018-02-25T20:26:47.813Z,65
2018-02-25T20:31:47.196Z,63.6
2018-02-25T20:36:47.381Z,63
2018-02-25T20:41:48.528Z,63.4
2018-02-25T20:46:47.482Z,63.5
2018-02-25T20:51:47.238Z,65.3
2018-02-25T20:56:47.231Z,65.5
2018-02-25T21:01:47.199Z,66.6
2018-02-25T21:06:47.151Z,66.8
2018-02-25T21:11:47.509Z,67.5
2018-02-25T21:16:47.825Z,67.5
2018-02-25T21:21:48.056Z,68
2018-02-25T21:26:47.581Z,68.5
2018-02-25T21:31:47.780Z,68.6
2018-02-25T21:36:47.354Z,68.6
2018-02-25T21:41:47.335Z,68.9
2018-02-25T21:46:47.692Z,69
2018-02-25T21:51:47.331Z,68.6
2018-02-25T21:56:47.412Z,68.6
2018-02-25T22:01:47.764Z,67.8
2018-02-25T22:06:47.613Z,68.5
2018-02-25T22:11:47.526Z,67.9
2018-02-25T22:16:47.336Z,67.9
2018-02-25T22:21:47.357Z,68.1
2018-02-25T22:26:47.330Z,68.3
2018-02-25T22:31:47.337Z,67.7
2018-02-25T22:36:47.563Z,67.9
2018-02-25T22:41:47.515Z,68.2
2018-02-25T22:46:47.348Z,68.1
2018-02-25T22:51:47.552Z,68.9
2018-02-25T22:56:47.517Z,68.1
2018-02-25T23:01:47.510Z,68.1
2018-02-25T23:06:47.584Z,67.8
2018-02-25T23:11:47.485Z,68
2018-02-25T23:16:47.374Z,67.5
2018-02-25T23:21:47.558Z,68.2
2018-02-25T23:26:47.581Z,67.2
2018-02-25T23:31:47.522Z,67.4
2018-02-25T23:36:47.332Z,67
2018-02-25T23:41:47.654Z,66.7
2018-02-25T23:46:47.546Z,67
2018-02-25T23:51:47.576Z,66.6
2018-02-25T23:56:47.590Z,66.6
